sensor_id;sensor_type;location;lat;lon;timestamp;P1;durP1;ratioP1;P2;durP2;ratioP2
22768;SDS011;13001;51.968;5.918;2024-02-15T00:01:06;22.67;;;19.50;;
22768;SDS011;13001;51.968;5.918;2024-02-15T00:03:33;23.73;;;19.23;;
22768;SDS011;13001;51.968;5.918;2024-02-15T00:06:02;25.75;;;20.85;;
22768;SDS011;13001;51.968;5.918;2024-02-15T00:08:29;21.55;;;19.23;;
22768;SDS011;13001;51.968;5.918;2024-02-15T00:10:57;25.25;;;19.70;;
22768;SDS011;13001;51.968;5.918;2024-02-15T00:13:24;23.52;;;19.90;;
22768;SDS011;13001;51.968;5.918;2024-02-15T00:15:52;22.58;;;19.55;;
22768;SDS011;13001;51.968;5.918;2024-02-15T00:18:19;25.90;;;19.90;;
22768;SDS011;13001;51.968;5.918;2024-02-15T00:20:49;22.58;;;19.87;;
22768;SDS011;13001;51.968;5.918;2024-02-15T00:23:16;25.20;;;20.77;;
22768;SDS011;13001;51.968;5.918;2024-02-15T00:25:43;27.13;;;20.47;;
22768;SDS011;13001;51.968;5.918;2024-02-15T00:28:11;25.45;;;21.82;;
22768;SDS011;13001;51.968;5.918;2024-02-15T00:30:38;26.23;;;21.13;;
22768;SDS011;13001;51.968;5.918;2024-02-15T00:33:06;27.52;;;21.75;;
22768;SDS011;13001;51.968;5.918;2024-02-15T00:35:34;27.87;;;21.87;;
22768;SDS011;13001;51.968;5.918;2024-02-15T00:38:01;27.40;;;22.50;;
22768;SDS011;13001;51.968;5.918;2024-02-15T00:40:29;28.00;;;22.50;;
22768;SDS011;13001;51.968;5.918;2024-02-15T00:42:59;26.48;;;23.35;;
22768;SDS011;13001;51.968;5.918;2024-02-15T00:45:26;32.60;;;25.20;;
22768;SDS011;13001;51.968;5.918;2024-02-15T00:47:53;30.02;;;24.77;;
22768;SDS011;13001;51.968;5.918;2024-02-15T00:50:22;32.42;;;25.77;;
22768;SDS011;13001;51.968;5.918;2024-02-15T00:52:49;34.73;;;27.47;;
22768;SDS011;13001;51.968;5.918;2024-02-15T00:55:17;33.48;;;26.55;;
22768;SDS011;13001;51.968;5.918;2024-02-15T00:57:46;35.40;;;27.15;;
22768;SDS011;13001;51.968;5.918;2024-02-15T01:00:15;36.77;;;27.57;;
22768;SDS011;13001;51.968;5.918;2024-02-15T01:02:42;33.58;;;26.65;;
22768;SDS011;13001;51.968;5.918;2024-02-15T01:05:11;33.33;;;26.15;;
22768;SDS011;13001;51.968;5.918;2024-02-15T01:07:41;31.60;;;26.10;;
22768;SDS011;13001;51.968;5.918;2024-02-15T01:10:08;33.40;;;26.17;;
22768;SDS011;13001;51.968;5.918;2024-02-15T01:12:36;30.37;;;25.40;;
22768;SDS011;13001;51.968;5.918;2024-02-15T01:15:03;28.50;;;23.10;;
22768;SDS011;13001;51.968;5.918;2024-02-15T01:17:32;33.78;;;22.95;;
22768;SDS011;13001;51.968;5.918;2024-02-15T01:19:59;30.82;;;22.67;;
22768;SDS011;13001;51.968;5.918;2024-02-15T01:22:27;26.80;;;20.97;;
22768;SDS011;13001;51.968;5.918;2024-02-15T01:24:54;33.10;;;20.68;;
22768;SDS011;13001;51.968;5.918;2024-02-15T01:27:23;24.50;;;19.85;;
22768;SDS011;13001;51.968;5.918;2024-02-15T01:29:50;23.20;;;18.50;;
22768;SDS011;13001;51.968;5.918;2024-02-15T01:32:17;28.50;;;19.30;;
22768;SDS011;13001;51.968;5.918;2024-02-15T01:34:45;27.48;;;18.20;;
22768;SDS011;13001;51.968;5.918;2024-02-15T01:37:13;27.13;;;18.73;;
22768;SDS011;13001;51.968;5.918;2024-02-15T01:39:40;25.17;;;18.37;;
22768;SDS011;13001;51.968;5.918;2024-02-15T01:42:08;24.23;;;18.75;;
22768;SDS011;13001;51.968;5.918;2024-02-15T01:44:35;24.27;;;18.12;;
22768;SDS011;13001;51.968;5.918;2024-02-15T01:47:05;22.65;;;17.17;;
22768;SDS011;13001;51.968;5.918;2024-02-15T01:49:34;30.23;;;17.70;;
22768;SDS011;13001;51.968;5.918;2024-02-15T01:52:02;27.82;;;18.30;;
22768;SDS011;13001;51.968;5.918;2024-02-15T01:54:32;24.82;;;16.57;;
22768;SDS011;13001;51.968;5.918;2024-02-15T01:57:02;22.60;;;17.03;;
22768;SDS011;13001;51.968;5.918;2024-02-15T01:59:30;28.40;;;17.52;;
22768;SDS011;13001;51.968;5.918;2024-02-15T02:01:58;28.20;;;16.97;;
22768;SDS011;13001;51.968;5.918;2024-02-15T02:04:26;24.82;;;16.32;;
22768;SDS011;13001;51.968;5.918;2024-02-15T02:06:54;25.00;;;16.00;;
22768;SDS011;13001;51.968;5.918;2024-02-15T02:09:23;29.15;;;15.03;;
22768;SDS011;13001;51.968;5.918;2024-02-15T02:11:52;23.30;;;15.08;;
22768;SDS011;13001;51.968;5.918;2024-02-15T02:14:19;22.55;;;15.15;;
22768;SDS011;13001;51.968;5.918;2024-02-15T02:16:48;23.87;;;14.43;;
22768;SDS011;13001;51.968;5.918;2024-02-15T02:19:15;20.60;;;13.83;;
22768;SDS011;13001;51.968;5.918;2024-02-15T02:21:43;26.52;;;14.80;;
22768;SDS011;13001;51.968;5.918;2024-02-15T02:24:12;25.30;;;14.15;;
22768;SDS011;13001;51.968;5.918;2024-02-15T02:26:41;22.53;;;14.47;;
22768;SDS011;13001;51.968;5.918;2024-02-15T02:29:10;24.90;;;14.58;;
22768;SDS011;13001;51.968;5.918;2024-02-15T02:31:38;22.98;;;14.40;;
22768;SDS011;13001;51.968;5.918;2024-02-15T02:34:06;21.57;;;14.68;;
22768;SDS011;13001;51.968;5.918;2024-02-15T02:36:35;22.55;;;14.90;;
22768;SDS011;13001;51.968;5.918;2024-02-15T02:39:03;23.38;;;15.20;;
22768;SDS011;13001;51.968;5.918;2024-02-15T02:41:34;25.90;;;15.25;;
22768;SDS011;13001;51.968;5.918;2024-02-15T02:44:01;19.65;;;14.63;;
22768;SDS011;13001;51.968;5.918;2024-02-15T02:46:29;23.00;;;14.63;;
22768;SDS011;13001;51.968;5.918;2024-02-15T02:48:56;23.10;;;14.13;;
22768;SDS011;13001;51.968;5.918;2024-02-15T02:51:24;25.50;;;14.15;;
22768;SDS011;13001;51.968;5.918;2024-02-15T02:53:51;23.18;;;15.30;;
22768;SDS011;13001;51.968;5.918;2024-02-15T02:56:19;25.60;;;14.58;;
22768;SDS011;13001;51.968;5.918;2024-02-15T02:58:47;21.40;;;13.95;;
22768;SDS011;13001;51.968;5.918;2024-02-15T03:01:14;25.10;;;14.25;;
22768;SDS011;13001;51.968;5.918;2024-02-15T03:03:44;20.68;;;13.70;;
22768;SDS011;13001;51.968;5.918;2024-02-15T03:06:11;25.12;;;13.80;;
22768;SDS011;13001;51.968;5.918;2024-02-15T03:08:39;22.37;;;13.68;;
22768;SDS011;13001;51.968;5.918;2024-02-15T03:11:09;23.22;;;13.13;;
22768;SDS011;13001;51.968;5.918;2024-02-15T03:13:36;23.53;;;13.20;;
22768;SDS011;13001;51.968;5.918;2024-02-15T03:16:04;26.02;;;13.32;;
22768;SDS011;13001;51.968;5.918;2024-02-15T03:18:31;24.23;;;12.58;;
22768;SDS011;13001;51.968;5.918;2024-02-15T03:20:59;19.42;;;12.53;;
22768;SDS011;13001;51.968;5.918;2024-02-15T03:23:26;20.68;;;12.30;;
22768;SDS011;13001;51.968;5.918;2024-02-15T03:25:54;24.18;;;13.05;;
22768;SDS011;13001;51.968;5.918;2024-02-15T03:28:22;19.62;;;12.60;;
22768;SDS011;13001;51.968;5.918;2024-02-15T03:30:50;19.00;;;12.18;;
22768;SDS011;13001;51.968;5.918;2024-02-15T03:33:18;22.62;;;12.07;;
22768;SDS011;13001;51.968;5.918;2024-02-15T03:35:47;21.07;;;11.60;;
22768;SDS011;13001;51.968;5.918;2024-02-15T03:38:15;25.15;;;11.88;;
22768;SDS011;13001;51.968;5.918;2024-02-15T03:40:42;24.32;;;10.90;;
22768;SDS011;13001;51.968;5.918;2024-02-15T03:43:10;22.15;;;11.33;;
22768;SDS011;13001;51.968;5.918;2024-02-15T03:45:38;24.07;;;10.72;;
22768;SDS011;13001;51.968;5.918;2024-02-15T03:48:07;16.67;;;10.65;;
22768;SDS011;13001;51.968;5.918;2024-02-15T03:50:35;19.12;;;10.65;;
22768;SDS011;13001;51.968;5.918;2024-02-15T03:53:04;22.87;;;10.53;;
22768;SDS011;13001;51.968;5.918;2024-02-15T03:55:32;20.70;;;10.20;;
22768;SDS011;13001;51.968;5.918;2024-02-15T03:58:01;20.57;;;9.70;;
22768;SDS011;13001;51.968;5.918;2024-02-15T04:00:28;20.68;;;9.50;;
22768;SDS011;13001;51.968;5.918;2024-02-15T04:02:56;22.60;;;9.57;;
22768;SDS011;13001;51.968;5.918;2024-02-15T04:05:23;16.77;;;8.88;;
22768;SDS011;13001;51.968;5.918;2024-02-15T04:07:51;23.93;;;8.70;;
22768;SDS011;13001;51.968;5.918;2024-02-15T04:10:19;26.77;;;9.10;;
22768;SDS011;13001;51.968;5.918;2024-02-15T04:12:47;19.85;;;8.70;;
22768;SDS011;13001;51.968;5.918;2024-02-15T04:15:14;16.40;;;8.50;;
22768;SDS011;13001;51.968;5.918;2024-02-15T04:17:43;19.87;;;7.30;;
22768;SDS011;13001;51.968;5.918;2024-02-15T04:20:11;21.80;;;7.58;;
22768;SDS011;13001;51.968;5.918;2024-02-15T04:22:40;19.25;;;7.70;;
22768;SDS011;13001;51.968;5.918;2024-02-15T04:25:09;19.73;;;7.00;;
22768;SDS011;13001;51.968;5.918;2024-02-15T04:27:38;21.65;;;7.15;;
22768;SDS011;13001;51.968;5.918;2024-02-15T04:30:06;17.87;;;6.78;;
22768;SDS011;13001;51.968;5.918;2024-02-15T04:32:35;16.50;;;6.90;;
22768;SDS011;13001;51.968;5.918;2024-02-15T04:35:03;19.20;;;7.10;;
22768;SDS011;13001;51.968;5.918;2024-02-15T04:37:31;14.65;;;6.25;;
22768;SDS011;13001;51.968;5.918;2024-02-15T04:40:00;15.88;;;6.33;;
22768;SDS011;13001;51.968;5.918;2024-02-15T04:42:29;17.02;;;6.17;;
22768;SDS011;13001;51.968;5.918;2024-02-15T04:44:58;17.57;;;5.97;;
22768;SDS011;13001;51.968;5.918;2024-02-15T04:47:26;20.62;;;6.42;;
22768;SDS011;13001;51.968;5.918;2024-02-15T04:49:55;17.87;;;6.22;;
22768;SDS011;13001;51.968;5.918;2024-02-15T04:52:23;16.32;;;6.00;;
22768;SDS011;13001;51.968;5.918;2024-02-15T04:54:50;16.75;;;5.92;;
22768;SDS011;13001;51.968;5.918;2024-02-15T04:57:20;15.72;;;5.87;;
22768;SDS011;13001;51.968;5.918;2024-02-15T04:59:47;21.57;;;5.40;;
22768;SDS011;13001;51.968;5.918;2024-02-15T05:02:15;16.27;;;5.42;;
22768;SDS011;13001;51.968;5.918;2024-02-15T05:04:43;12.53;;;5.17;;
22768;SDS011;13001;51.968;5.918;2024-02-15T05:07:10;18.42;;;5.50;;
22768;SDS011;13001;51.968;5.918;2024-02-15T05:09:39;14.58;;;5.40;;
22768;SDS011;13001;51.968;5.918;2024-02-15T05:12:07;12.93;;;5.12;;
22768;SDS011;13001;51.968;5.918;2024-02-15T05:14:34;20.32;;;5.45;;
22768;SDS011;13001;51.968;5.918;2024-02-15T05:17:03;15.40;;;5.47;;
22768;SDS011;13001;51.968;5.918;2024-02-15T05:19:32;13.88;;;5.20;;
22768;SDS011;13001;51.968;5.918;2024-02-15T05:22:00;13.70;;;5.85;;
22768;SDS011;13001;51.968;5.918;2024-02-15T05:24:30;15.80;;;5.70;;
22768;SDS011;13001;51.968;5.918;2024-02-15T05:26:57;12.68;;;5.53;;
22768;SDS011;13001;51.968;5.918;2024-02-15T05:29:25;16.65;;;5.78;;
22768;SDS011;13001;51.968;5.918;2024-02-15T05:31:53;12.70;;;5.50;;
22768;SDS011;13001;51.968;5.918;2024-02-15T05:34:22;19.48;;;5.90;;
22768;SDS011;13001;51.968;5.918;2024-02-15T05:36:50;16.45;;;5.78;;
22768;SDS011;13001;51.968;5.918;2024-02-15T05:39:18;15.45;;;5.78;;
22768;SDS011;13001;51.968;5.918;2024-02-15T05:41:47;18.98;;;5.70;;
22768;SDS011;13001;51.968;5.918;2024-02-15T05:44:14;14.25;;;5.47;;
22768;SDS011;13001;51.968;5.918;2024-02-15T05:46:44;19.00;;;5.90;;
22768;SDS011;13001;51.968;5.918;2024-02-15T05:49:13;14.90;;;5.67;;
22768;SDS011;13001;51.968;5.918;2024-02-15T05:51:42;16.48;;;5.50;;
22768;SDS011;13001;51.968;5.918;2024-02-15T05:54:11;16.48;;;5.97;;
22768;SDS011;13001;51.968;5.918;2024-02-15T05:56:38;14.75;;;5.78;;
22768;SDS011;13001;51.968;5.918;2024-02-15T05:59:06;16.20;;;6.10;;
22768;SDS011;13001;51.968;5.918;2024-02-15T06:01:35;15.85;;;5.83;;
22768;SDS011;13001;51.968;5.918;2024-02-15T06:04:04;17.10;;;6.10;;
22768;SDS011;13001;51.968;5.918;2024-02-15T06:06:36;18.77;;;5.57;;
22768;SDS011;13001;51.968;5.918;2024-02-15T06:09:04;15.20;;;5.90;;
22768;SDS011;13001;51.968;5.918;2024-02-15T06:11:31;17.92;;;5.72;;
22768;SDS011;13001;51.968;5.918;2024-02-15T06:13:59;15.68;;;5.70;;
22768;SDS011;13001;51.968;5.918;2024-02-15T06:16:26;17.45;;;5.47;;
22768;SDS011;13001;51.968;5.918;2024-02-15T06:18:54;15.10;;;5.55;;
22768;SDS011;13001;51.968;5.918;2024-02-15T06:21:21;15.38;;;5.10;;
22768;SDS011;13001;51.968;5.918;2024-02-15T06:23:49;13.32;;;5.35;;
22768;SDS011;13001;51.968;5.918;2024-02-15T06:26:17;15.85;;;5.12;;
22768;SDS011;13001;51.968;5.918;2024-02-15T06:28:46;14.70;;;5.33;;
22768;SDS011;13001;51.968;5.918;2024-02-15T06:31:31;11.43;;;5.03;;
22768;SDS011;13001;51.968;5.918;2024-02-15T06:34:17;11.88;;;5.20;;
22768;SDS011;13001;51.968;5.918;2024-02-15T06:37:02;12.58;;;4.90;;
22768;SDS011;13001;51.968;5.918;2024-02-15T06:39:48;11.33;;;5.35;;
22768;SDS011;13001;51.968;5.918;2024-02-15T06:42:15;9.95;;;4.87;;
22768;SDS011;13001;51.968;5.918;2024-02-15T06:44:45;14.95;;;5.12;;
22768;SDS011;13001;51.968;5.918;2024-02-15T06:47:14;11.18;;;5.08;;
22768;SDS011;13001;51.968;5.918;2024-02-15T06:49:45;10.93;;;4.40;;
22768;SDS011;13001;51.968;5.918;2024-02-15T06:52:14;10.60;;;4.75;;
22768;SDS011;13001;51.968;5.918;2024-02-15T06:54:42;11.53;;;4.55;;
22768;SDS011;13001;51.968;5.918;2024-02-15T06:57:10;11.83;;;5.10;;
22768;SDS011;13001;51.968;5.918;2024-02-15T06:59:38;10.73;;;5.00;;
22768;SDS011;13001;51.968;5.918;2024-02-15T07:02:06;11.00;;;5.00;;
22768;SDS011;13001;51.968;5.918;2024-02-15T07:04:34;10.28;;;5.00;;
22768;SDS011;13001;51.968;5.918;2024-02-15T07:07:02;14.18;;;4.87;;
22768;SDS011;13001;51.968;5.918;2024-02-15T07:09:30;13.13;;;4.90;;
22768;SDS011;13001;51.968;5.918;2024-02-15T07:11:58;10.30;;;5.03;;
22768;SDS011;13001;51.968;5.918;2024-02-15T07:14:25;8.53;;;4.58;;
22768;SDS011;13001;51.968;5.918;2024-02-15T07:16:54;15.40;;;4.97;;
22768;SDS011;13001;51.968;5.918;2024-02-15T07:19:23;11.12;;;5.03;;
22768;SDS011;13001;51.968;5.918;2024-02-15T07:21:52;12.57;;;5.13;;
22768;SDS011;13001;51.968;5.918;2024-02-15T07:24:21;9.90;;;4.80;;
22768;SDS011;13001;51.968;5.918;2024-02-15T07:26:48;7.60;;;4.55;;
22768;SDS011;13001;51.968;5.918;2024-02-15T07:29:17;13.72;;;4.55;;
22768;SDS011;13001;51.968;5.918;2024-02-15T07:31:45;9.50;;;4.55;;
22768;SDS011;13001;51.968;5.918;2024-02-15T07:34:13;10.25;;;4.78;;
22768;SDS011;13001;51.968;5.918;2024-02-15T07:36:41;8.45;;;4.70;;
22768;SDS011;13001;51.968;5.918;2024-02-15T07:39:11;9.78;;;5.00;;
22768;SDS011;13001;51.968;5.918;2024-02-15T07:41:40;9.80;;;4.90;;
22768;SDS011;13001;51.968;5.918;2024-02-15T07:44:07;8.13;;;4.60;;
22768;SDS011;13001;51.968;5.918;2024-02-15T07:46:35;10.80;;;4.78;;
22768;SDS011;13001;51.968;5.918;2024-02-15T07:49:04;9.50;;;4.80;;
22768;SDS011;13001;51.968;5.918;2024-02-15T07:51:33;11.73;;;4.80;;
22768;SDS011;13001;51.968;5.918;2024-02-15T07:54:01;10.55;;;4.80;;
22768;SDS011;13001;51.968;5.918;2024-02-15T07:56:30;9.35;;;4.50;;
22768;SDS011;13001;51.968;5.918;2024-02-15T07:58:58;10.15;;;4.83;;
22768;SDS011;13001;51.968;5.918;2024-02-15T08:01:25;10.17;;;4.47;;
22768;SDS011;13001;51.968;5.918;2024-02-15T08:03:53;9.00;;;4.40;;
22768;SDS011;13001;51.968;5.918;2024-02-15T08:06:20;8.55;;;4.30;;
22768;SDS011;13001;51.968;5.918;2024-02-15T08:08:52;9.03;;;4.53;;
22768;SDS011;13001;51.968;5.918;2024-02-15T08:11:19;7.95;;;4.05;;
22768;SDS011;13001;51.968;5.918;2024-02-15T08:13:47;8.98;;;4.08;;
22768;SDS011;13001;51.968;5.918;2024-02-15T08:16:21;5.10;;;3.90;;
22768;SDS011;13001;51.968;5.918;2024-02-15T08:18:49;8.53;;;4.62;;
22768;SDS011;13001;51.968;5.918;2024-02-15T08:21:26;6.83;;;4.33;;
22768;SDS011;13001;51.968;5.918;2024-02-15T08:23:56;8.05;;;4.72;;
22768;SDS011;13001;51.968;5.918;2024-02-15T08:26:24;7.72;;;4.20;;
22768;SDS011;13001;51.968;5.918;2024-02-15T08:28:51;5.95;;;4.10;;
22768;SDS011;13001;51.968;5.918;2024-02-15T08:31:21;9.63;;;4.20;;
22768;SDS011;13001;51.968;5.918;2024-02-15T08:33:50;7.40;;;4.35;;
22768;SDS011;13001;51.968;5.918;2024-02-15T08:36:18;6.08;;;4.25;;
22768;SDS011;13001;51.968;5.918;2024-02-15T08:38:47;5.62;;;3.90;;
22768;SDS011;13001;51.968;5.918;2024-02-15T08:41:18;5.03;;;3.98;;
22768;SDS011;13001;51.968;5.918;2024-02-15T08:43:46;6.25;;;4.15;;
22768;SDS011;13001;51.968;5.918;2024-02-15T08:46:17;5.60;;;4.37;;
22768;SDS011;13001;51.968;5.918;2024-02-15T08:48:50;7.37;;;3.98;;
22768;SDS011;13001;51.968;5.918;2024-02-15T08:51:14;7.50;;;4.30;;
22768;SDS011;13001;51.968;5.918;2024-02-15T08:53:42;5.67;;;4.00;;
22768;SDS011;13001;51.968;5.918;2024-02-15T08:56:10;7.10;;;4.30;;
22768;SDS011;13001;51.968;5.918;2024-02-15T08:58:38;8.88;;;4.60;;
22768;SDS011;13001;51.968;5.918;2024-02-15T09:01:06;8.90;;;4.80;;
22768;SDS011;13001;51.968;5.918;2024-02-15T09:03:34;7.35;;;4.30;;
22768;SDS011;13001;51.968;5.918;2024-02-15T09:06:02;7.20;;;4.53;;
22768;SDS011;13001;51.968;5.918;2024-02-15T09:08:30;6.17;;;4.47;;
22768;SDS011;13001;51.968;5.918;2024-02-15T09:10:59;9.25;;;4.60;;
22768;SDS011;13001;51.968;5.918;2024-02-15T09:13:27;7.67;;;4.58;;
22768;SDS011;13001;51.968;5.918;2024-02-15T09:15:54;5.90;;;4.05;;
22768;SDS011;13001;51.968;5.918;2024-02-15T09:18:22;6.28;;;4.55;;
22768;SDS011;13001;51.968;5.918;2024-02-15T09:20:49;8.80;;;4.30;;
22768;SDS011;13001;51.968;5.918;2024-02-15T09:23:18;6.47;;;4.22;;
22768;SDS011;13001;51.968;5.918;2024-02-15T09:25:46;6.42;;;4.05;;
22768;SDS011;13001;51.968;5.918;2024-02-15T09:28:17;6.33;;;4.22;;
22768;SDS011;13001;51.968;5.918;2024-02-15T09:30:49;6.67;;;3.83;;
22768;SDS011;13001;51.968;5.918;2024-02-15T09:33:21;6.40;;;3.90;;
22768;SDS011;13001;51.968;5.918;2024-02-15T09:35:48;9.45;;;3.98;;
22768;SDS011;13001;51.968;5.918;2024-02-15T09:38:16;8.60;;;3.98;;
22768;SDS011;13001;51.968;5.918;2024-02-15T09:40:48;8.55;;;3.70;;
22768;SDS011;13001;51.968;5.918;2024-02-15T09:43:17;9.38;;;4.00;;
22768;SDS011;13001;51.968;5.918;2024-02-15T09:45:46;10.85;;;4.10;;
22768;SDS011;13001;51.968;5.918;2024-02-15T09:48:14;9.60;;;3.60;;
22768;SDS011;13001;51.968;5.918;2024-02-15T09:50:44;8.25;;;3.52;;
22768;SDS011;13001;51.968;5.918;2024-02-15T09:53:14;7.97;;;3.75;;
22768;SDS011;13001;51.968;5.918;2024-02-15T09:55:43;6.30;;;3.15;;
22768;SDS011;13001;51.968;5.918;2024-02-15T09:58:11;10.10;;;3.40;;
22768;SDS011;13001;51.968;5.918;2024-02-15T10:00:39;9.23;;;3.40;;
22768;SDS011;13001;51.968;5.918;2024-02-15T10:03:08;7.92;;;2.98;;
22768;SDS011;13001;51.968;5.918;2024-02-15T10:05:38;8.93;;;3.10;;
22768;SDS011;13001;51.968;5.918;2024-02-15T10:08:06;7.72;;;3.10;;
22768;SDS011;13001;51.968;5.918;2024-02-15T10:10:36;6.33;;;3.22;;
22768;SDS011;13001;51.968;5.918;2024-02-15T10:13:03;10.65;;;3.22;;
22768;SDS011;13001;51.968;5.918;2024-02-15T10:15:31;8.65;;;3.42;;
22768;SDS011;13001;51.968;5.918;2024-02-15T10:18:08;9.63;;;3.15;;
22768;SDS011;13001;51.968;5.918;2024-02-15T10:20:38;9.40;;;2.90;;
22768;SDS011;13001;51.968;5.918;2024-02-15T10:25:37;8.50;;;2.90;;
22768;SDS011;13001;51.968;5.918;2024-02-15T10:28:12;8.48;;;2.90;;
22768;SDS011;13001;51.968;5.918;2024-02-15T10:30:36;6.97;;;3.33;;
22768;SDS011;13001;51.968;5.918;2024-02-15T10:33:05;9.68;;;3.60;;
22768;SDS011;13001;51.968;5.918;2024-02-15T10:35:36;10.65;;;3.45;;
22768;SDS011;13001;51.968;5.918;2024-02-15T10:38:07;7.28;;;3.25;;
22768;SDS011;13001;51.968;5.918;2024-02-15T10:40:37;7.28;;;3.50;;
22768;SDS011;13001;51.968;5.918;2024-02-15T10:43:07;8.48;;;3.22;;
22768;SDS011;13001;51.968;5.918;2024-02-15T10:45:36;8.05;;;3.50;;
22768;SDS011;13001;51.968;5.918;2024-02-15T10:48:06;8.88;;;3.83;;
22768;SDS011;13001;51.968;5.918;2024-02-15T10:50:35;11.35;;;3.42;;
22768;SDS011;13001;51.968;5.918;2024-02-15T10:53:11;7.75;;;3.75;;
22768;SDS011;13001;51.968;5.918;2024-02-15T10:55:38;8.53;;;4.03;;
22768;SDS011;13001;51.968;5.918;2024-02-15T10:58:09;7.40;;;3.67;;
22768;SDS011;13001;51.968;5.918;2024-02-15T11:00:39;10.65;;;4.08;;
22768;SDS011;13001;51.968;5.918;2024-02-15T11:03:09;11.03;;;3.60;;
22768;SDS011;13001;51.968;5.918;2024-02-15T11:05:39;11.10;;;3.95;;
22768;SDS011;13001;51.968;5.918;2024-02-15T11:08:09;9.75;;;3.42;;
22768;SDS011;13001;51.968;5.918;2024-02-15T11:10:37;12.10;;;3.87;;
22768;SDS011;13001;51.968;5.918;2024-02-15T11:13:09;10.18;;;3.62;;
22768;SDS011;13001;51.968;5.918;2024-02-15T11:15:42;8.35;;;3.50;;
22768;SDS011;13001;51.968;5.918;2024-02-15T11:18:12;8.55;;;3.33;;
22768;SDS011;13001;51.968;5.918;2024-02-15T11:23:14;10.43;;;3.72;;
22768;SDS011;13001;51.968;5.918;2024-02-15T11:25:44;8.28;;;3.50;;
22768;SDS011;13001;51.968;5.918;2024-02-15T11:30:55;6.40;;;2.70;;
22768;SDS011;13001;51.968;5.918;2024-02-15T11:36:04;10.93;;;3.07;;
22768;SDS011;13001;51.968;5.918;2024-02-15T11:38:39;6.50;;;2.80;;
22768;SDS011;13001;51.968;5.918;2024-02-15T11:41:09;7.17;;;3.07;;
22768;SDS011;13001;51.968;5.918;2024-02-15T11:46:14;6.95;;;2.87;;
22768;SDS011;13001;51.968;5.918;2024-02-15T11:48:47;11.40;;;3.60;;
22768;SDS011;13001;51.968;5.918;2024-02-15T11:51:25;10.93;;;3.07;;
22768;SDS011;13001;51.968;5.918;2024-02-15T11:56:55;9.60;;;3.23;;
22768;SDS011;13001;51.968;5.918;2024-02-15T11:59:13;11.77;;;3.17;;
22768;SDS011;13001;51.968;5.918;2024-02-15T12:01:58;6.83;;;2.80;;
22768;SDS011;13001;51.968;5.918;2024-02-15T12:04:43;8.07;;;2.87;;
22768;SDS011;13001;51.968;5.918;2024-02-15T12:07:29;6.27;;;2.83;;
22768;SDS011;13001;51.968;5.918;2024-02-15T12:10:15;6.23;;;3.20;;
22768;SDS011;13001;51.968;5.918;2024-02-15T12:13:02;5.37;;;3.47;;
22768;SDS011;13001;51.968;5.918;2024-02-15T12:16:00;9.00;;;2.53;;
22768;SDS011;13001;51.968;5.918;2024-02-15T12:18:46;10.27;;;2.83;;
22768;SDS011;13001;51.968;5.918;2024-02-15T12:21:17;5.70;;;2.77;;
22768;SDS011;13001;51.968;5.918;2024-02-15T12:23:48;9.67;;;3.07;;
22768;SDS011;13001;51.968;5.918;2024-02-15T12:26:21;7.30;;;2.70;;
22768;SDS011;13001;51.968;5.918;2024-02-15T12:28:52;8.87;;;3.20;;
22768;SDS011;13001;51.968;5.918;2024-02-15T12:31:20;7.83;;;2.80;;
22768;SDS011;13001;51.968;5.918;2024-02-15T12:34:05;9.03;;;2.23;;
22768;SDS011;13001;51.968;5.918;2024-02-15T12:36:31;4.67;;;2.13;;
22768;SDS011;13001;51.968;5.918;2024-02-15T12:39:02;5.30;;;2.60;;
22768;SDS011;13001;51.968;5.918;2024-02-15T12:41:33;6.87;;;2.67;;
22768;SDS011;13001;51.968;5.918;2024-02-15T12:44:00;6.63;;;2.40;;
22768;SDS011;13001;51.968;5.918;2024-02-15T12:46:29;5.53;;;2.13;;
22768;SDS011;13001;51.968;5.918;2024-02-15T12:49:09;9.10;;;2.43;;
22768;SDS011;13001;51.968;5.918;2024-02-15T12:51:50;3.80;;;1.97;;
22768;SDS011;13001;51.968;5.918;2024-02-15T12:54:19;9.07;;;2.47;;
22768;SDS011;13001;51.968;5.918;2024-02-15T12:56:47;5.90;;;2.00;;
22768;SDS011;13001;51.968;5.918;2024-02-15T12:59:17;9.53;;;2.47;;
22768;SDS011;13001;51.968;5.918;2024-02-15T13:01:48;6.77;;;1.67;;
22768;SDS011;13001;51.968;5.918;2024-02-15T13:04:24;10.60;;;1.80;;
22768;SDS011;13001;51.968;5.918;2024-02-15T13:06:49;4.93;;;1.87;;
22768;SDS011;13001;51.968;5.918;2024-02-15T13:09:17;7.60;;;2.13;;
22768;SDS011;13001;51.968;5.918;2024-02-15T13:11:44;10.73;;;1.60;;
22768;SDS011;13001;51.968;5.918;2024-02-15T13:14:12;6.90;;;2.30;;
22768;SDS011;13001;51.968;5.918;2024-02-15T13:16:40;3.77;;;1.80;;
22768;SDS011;13001;51.968;5.918;2024-02-15T13:19:09;5.40;;;1.60;;
22768;SDS011;13001;51.968;5.918;2024-02-15T13:21:37;4.43;;;1.80;;
22768;SDS011;13001;51.968;5.918;2024-02-15T13:24:04;4.73;;;1.80;;
22768;SDS011;13001;51.968;5.918;2024-02-15T13:26:32;5.53;;;1.60;;
22768;SDS011;13001;51.968;5.918;2024-02-15T13:29:03;8.43;;;1.80;;
22768;SDS011;13001;51.968;5.918;2024-02-15T13:31:30;4.27;;;1.43;;
22768;SDS011;13001;51.968;5.918;2024-02-15T13:33:58;7.57;;;1.77;;
22768;SDS011;13001;51.968;5.918;2024-02-15T13:36:25;7.43;;;1.60;;
22768;SDS011;13001;51.968;5.918;2024-02-15T13:38:54;4.97;;;1.30;;
22768;SDS011;13001;51.968;5.918;2024-02-15T13:41:23;5.37;;;1.50;;
22768;SDS011;13001;51.968;5.918;2024-02-15T13:43:50;5.20;;;1.40;;
22768;SDS011;13001;51.968;5.918;2024-02-15T13:46:18;4.43;;;1.63;;
22768;SDS011;13001;51.968;5.918;2024-02-15T13:48:47;5.17;;;1.23;;
22768;SDS011;13001;51.968;5.918;2024-02-15T13:51:14;5.80;;;1.57;;
22768;SDS011;13001;51.968;5.918;2024-02-15T13:53:41;6.00;;;1.80;;
22768;SDS011;13001;51.968;5.918;2024-02-15T13:56:09;5.10;;;1.60;;
22768;SDS011;13001;51.968;5.918;2024-02-15T13:58:36;6.33;;;2.13;;
22768;SDS011;13001;51.968;5.918;2024-02-15T14:01:05;5.07;;;2.20;;
22768;SDS011;13001;51.968;5.918;2024-02-15T14:03:35;5.33;;;2.13;;
22768;SDS011;13001;51.968;5.918;2024-02-15T14:06:03;8.07;;;2.80;;
22768;SDS011;13001;51.968;5.918;2024-02-15T14:08:31;7.60;;;2.63;;
22768;SDS011;13001;51.968;5.918;2024-02-15T14:11:01;9.37;;;2.60;;
22768;SDS011;13001;51.968;5.918;2024-02-15T14:13:29;4.47;;;2.10;;
22768;SDS011;13001;51.968;5.918;2024-02-15T14:15:56;5.97;;;2.50;;
22768;SDS011;13001;51.968;5.918;2024-02-15T14:18:24;6.97;;;2.07;;
22768;SDS011;13001;51.968;5.918;2024-02-15T14:20:54;6.90;;;2.30;;
22768;SDS011;13001;51.968;5.918;2024-02-15T14:23:21;4.97;;;2.20;;
22768;SDS011;13001;51.968;5.918;2024-02-15T14:25:50;4.47;;;2.07;;
22768;SDS011;13001;51.968;5.918;2024-02-15T14:28:19;5.07;;;2.23;;
22768;SDS011;13001;51.968;5.918;2024-02-15T14:30:46;7.87;;;1.90;;
22768;SDS011;13001;51.968;5.918;2024-02-15T14:33:32;5.93;;;2.50;;
22768;SDS011;13001;51.968;5.918;2024-02-15T14:35:59;11.10;;;2.30;;
22768;SDS011;13001;51.968;5.918;2024-02-15T14:38:27;6.40;;;2.60;;
22768;SDS011;13001;51.968;5.918;2024-02-15T14:40:54;8.93;;;2.60;;
22768;SDS011;13001;51.968;5.918;2024-02-15T14:43:24;4.27;;;2.00;;
22768;SDS011;13001;51.968;5.918;2024-02-15T14:45:52;7.67;;;1.97;;
22768;SDS011;13001;51.968;5.918;2024-02-15T14:48:22;11.60;;;2.43;;
22768;SDS011;13001;51.968;5.918;2024-02-15T14:50:50;7.07;;;2.40;;
22768;SDS011;13001;51.968;5.918;2024-02-15T14:53:18;8.43;;;1.93;;
22768;SDS011;13001;51.968;5.918;2024-02-15T14:55:45;10.90;;;3.00;;
22768;SDS011;13001;51.968;5.918;2024-02-15T14:58:14;5.90;;;2.27;;
22768;SDS011;13001;51.968;5.918;2024-02-15T15:00:43;5.83;;;2.23;;
22768;SDS011;13001;51.968;5.918;2024-02-15T15:03:11;7.40;;;2.17;;